Terminal Aerodrome Forecast
Issued by NWS

Home | Current Version | Previous Version | Text Only | Print | Product List | Glossary On
Versions: 1 2 3 4 5 6 7 8 9 10 11 12 13 14 15 16 17 18 19 20 21 22 23 24 25 26 27 28
149
FTUS45 KPSR 161126
TAFSDL
TAF
KSDL 161126Z 1612/1712 33003KT P6SM FEW250
     FM170100 03005KT P6SM SKC
     FM170500 03009KT P6SM SKC=

USA.gov is the U.S. government's official web portal to all federal, state and local government web resources and services.